sensor_id;sensor_type;location;lat;lon;timestamp;pressure;altitude;pressure_sealevel;temperature;humidity
73600;BME280;61877;48.246;9.220;2023-07-13T00:02:15;94211.91;;;18.02;88.96
73600;BME280;61877;48.246;9.220;2023-07-13T00:04:41;94221.19;;;17.98;86.80
73600;BME280;61877;48.246;9.220;2023-07-13T00:07:08;94220.41;;;17.94;88.95
73600;BME280;61877;48.246;9.220;2023-07-13T00:09:34;94208.31;;;17.84;87.43
73600;BME280;61877;48.246;9.220;2023-07-13T00:12:01;94203.69;;;17.85;87.83
73600;BME280;61877;48.246;9.220;2023-07-13T00:14:30;94195.50;;;17.78;87.19
73600;BME280;61877;48.246;9.220;2023-07-13T00:16:57;94197.03;;;17.75;88.05
73600;BME280;61877;48.246;9.220;2023-07-13T00:19:24;94198.53;;;17.69;88.01
73600;BME280;61877;48.246;9.220;2023-07-13T00:21:52;94194.22;;;17.61;89.35
73600;BME280;61877;48.246;9.220;2023-07-13T00:24:21;94200.41;;;17.58;90.38
73600;BME280;61877;48.246;9.220;2023-07-13T00:26:47;94201.88;;;17.45;88.91
73600;BME280;61877;48.246;9.220;2023-07-13T00:29:13;94209.19;;;17.45;92.95
73600;BME280;61877;48.246;9.220;2023-07-13T00:31:39;94201.75;;;17.35;93.54
73600;BME280;61877;48.246;9.220;2023-07-13T00:34:06;94208.25;;;17.23;94.76
73600;BME280;61877;48.246;9.220;2023-07-13T00:36:32;94198.91;;;17.14;94.60
73600;BME280;61877;48.246;9.220;2023-07-13T00:38:58;94200.38;;;17.04;94.92
73600;BME280;61877;48.246;9.220;2023-07-13T00:41:24;94199.56;;;17.00;97.49
73600;BME280;61877;48.246;9.220;2023-07-13T00:43:50;94201.03;;;16.91;97.49
73600;BME280;61877;48.246;9.220;2023-07-13T00:46:22;94204.84;;;16.83;98.70
73600;BME280;61877;48.246;9.220;2023-07-13T00:48:49;94204.75;;;16.75;97.03
73600;BME280;61877;48.246;9.220;2023-07-13T00:51:21;94204.72;;;16.72;98.15
73600;BME280;61877;48.246;9.220;2023-07-13T00:53:47;94207.72;;;16.63;98.17
73600;BME280;61877;48.246;9.220;2023-07-13T00:56:12;94211.94;;;16.57;99.69
73600;BME280;61877;48.246;9.220;2023-07-13T00:58:38;94219.16;;;16.46;99.70
73600;BME280;61877;48.246;9.220;2023-07-13T01:01:05;94217.91;;;16.40;99.57
73600;BME280;61877;48.246;9.220;2023-07-13T01:03:30;94212.47;;;16.40;100.00
73600;BME280;61877;48.246;9.220;2023-07-13T01:05:56;94208.56;;;16.34;100.00
73600;BME280;61877;48.246;9.220;2023-07-13T01:08:23;94205.44;;;16.32;100.00
73600;BME280;61877;48.246;9.220;2023-07-13T01:10:53;94203.47;;;16.29;100.00
73600;BME280;61877;48.246;9.220;2023-07-13T01:13:19;94201.47;;;16.23;98.27
73600;BME280;61877;48.246;9.220;2023-07-13T01:15:48;94211.03;;;16.17;98.67
73600;BME280;61877;48.246;9.220;2023-07-13T01:18:15;94205.63;;;16.17;100.00
73600;BME280;61877;48.246;9.220;2023-07-13T01:20:50;94207.94;;;16.15;100.00
73600;BME280;61877;48.246;9.220;2023-07-13T01:23:19;94206.66;;;16.05;100.00
73600;BME280;61877;48.246;9.220;2023-07-13T01:25:45;94206.59;;;15.98;100.00
73600;BME280;61877;48.246;9.220;2023-07-13T01:28:10;94211.25;;;16.01;100.00
73600;BME280;61877;48.246;9.220;2023-07-13T01:30:37;94219.38;;;16.01;99.96
73600;BME280;61877;48.246;9.220;2023-07-13T01:33:03;94212.31;;;15.93;100.00
73600;BME280;61877;48.246;9.220;2023-07-13T01:35:28;94217.22;;;15.84;99.18
73600;BME280;61877;48.246;9.220;2023-07-13T01:37:55;94218.25;;;15.76;99.96
73600;BME280;61877;48.246;9.220;2023-07-13T01:40:25;94214.31;;;15.70;100.00
73600;BME280;61877;48.246;9.220;2023-07-13T01:42:50;94228.47;;;15.60;99.14
73600;BME280;61877;48.246;9.220;2023-07-13T01:45:16;94219.47;;;15.52;100.00
73600;BME280;61877;48.246;9.220;2023-07-13T01:47:41;94224.09;;;15.52;100.00
73600;BME280;61877;48.246;9.220;2023-07-13T01:50:07;94220.50;;;15.44;99.87
73600;BME280;61877;48.246;9.220;2023-07-13T01:52:42;94222.44;;;15.44;100.00
73600;BME280;61877;48.246;9.220;2023-07-13T01:55:10;94225.88;;;15.41;100.00
73600;BME280;61877;48.246;9.220;2023-07-13T01:57:35;94223.94;;;15.41;100.00
73600;BME280;61877;48.246;9.220;2023-07-13T02:00:03;94227.03;;;15.40;100.00
73600;BME280;61877;48.246;9.220;2023-07-13T02:02:33;94223.03;;;15.34;100.00
73600;BME280;61877;48.246;9.220;2023-07-13T02:05:08;94228.94;;;15.39;100.00
73600;BME280;61877;48.246;9.220;2023-07-13T02:07:34;94221.63;;;15.40;100.00
73600;BME280;61877;48.246;9.220;2023-07-13T02:09:59;94225.88;;;15.41;99.59
73600;BME280;61877;48.246;9.220;2023-07-13T02:12:27;94222.38;;;15.40;98.79
73600;BME280;61877;48.246;9.220;2023-07-13T02:14:54;94217.03;;;15.44;98.31
73600;BME280;61877;48.246;9.220;2023-07-13T02:17:19;94215.59;;;15.50;97.83
73600;BME280;61877;48.246;9.220;2023-07-13T02:19:45;94210.63;;;15.56;98.73
73600;BME280;61877;48.246;9.220;2023-07-13T02:22:11;94216.41;;;15.54;97.43
73600;BME280;61877;48.246;9.220;2023-07-13T02:24:46;94220.47;;;15.41;97.56
73600;BME280;61877;48.246;9.220;2023-07-13T02:27:12;94215.34;;;15.36;99.46
73600;BME280;61877;48.246;9.220;2023-07-13T02:29:39;94207.53;;;15.31;99.25
73600;BME280;61877;48.246;9.220;2023-07-13T02:32:06;94207.41;;;15.24;98.78
73600;BME280;61877;48.246;9.220;2023-07-13T02:34:33;94211.03;;;15.09;99.44
73600;BME280;61877;48.246;9.220;2023-07-13T02:36:58;94204.38;;;15.03;99.06
73600;BME280;61877;48.246;9.220;2023-07-13T02:39:24;94214.41;;;15.02;100.00
73600;BME280;61877;48.246;9.220;2023-07-13T02:41:50;94220.97;;;15.01;99.60
73600;BME280;61877;48.246;9.220;2023-07-13T02:44:16;94223.31;;;15.03;100.00
73600;BME280;61877;48.246;9.220;2023-07-13T02:46:43;94224.75;;;14.97;98.91
73600;BME280;61877;48.246;9.220;2023-07-13T02:49:09;94217.72;;;14.92;99.30
73600;BME280;61877;48.246;9.220;2023-07-13T02:51:37;94218.50;;;14.93;99.61
73600;BME280;61877;48.246;9.220;2023-07-13T02:54:04;94209.59;;;14.92;99.41
73600;BME280;61877;48.246;9.220;2023-07-13T02:56:32;94216.28;;;14.98;100.00
73600;BME280;61877;48.246;9.220;2023-07-13T02:58:58;94215.00;;;14.92;99.74
73600;BME280;61877;48.246;9.220;2023-07-13T03:01:25;94218.63;;;15.00;100.00
73600;BME280;61877;48.246;9.220;2023-07-13T03:03:52;94211.53;;;14.92;99.12
73600;BME280;61877;48.246;9.220;2023-07-13T03:06:21;94218.19;;;14.98;98.98
73600;BME280;61877;48.246;9.220;2023-07-13T03:18:08;94204.69;;;14.98;98.47
73600;BME280;61877;48.246;9.220;2023-07-13T03:27:04;94214.13;;;14.85;97.77
73600;BME280;61877;48.246;9.220;2023-07-13T03:29:54;94218.28;;;14.79;98.20
73600;BME280;61877;48.246;9.220;2023-07-13T03:32:42;94208.53;;;14.74;97.48
73600;BME280;61877;48.246;9.220;2023-07-13T03:42:19;94223.28;;;14.58;98.68
73600;BME280;61877;48.246;9.220;2023-07-13T03:51:13;94230.84;;;14.71;97.99
73600;BME280;61877;48.246;9.220;2023-07-13T04:29:29;94262.63;;;15.00;97.24
73600;BME280;61877;48.246;9.220;2023-07-13T04:32:22;94264.47;;;15.19;95.99
73600;BME280;61877;48.246;9.220;2023-07-13T04:38:01;94270.84;;;15.30;93.57
73600;BME280;61877;48.246;9.220;2023-07-13T04:40:39;94268.59;;;15.35;94.26
73600;BME280;61877;48.246;9.220;2023-07-13T04:43:20;94273.69;;;15.37;94.61
73600;BME280;61877;48.246;9.220;2023-07-13T05:25:45;94296.75;;;16.06;90.58
73600;BME280;61877;48.246;9.220;2023-07-13T05:28:14;94301.53;;;16.16;90.06
73600;BME280;61877;48.246;9.220;2023-07-13T05:30:45;94296.63;;;16.25;89.12
73600;BME280;61877;48.246;9.220;2023-07-13T05:33:30;94306.25;;;16.22;87.97
73600;BME280;61877;48.246;9.220;2023-07-13T05:35:58;94303.06;;;16.17;88.72
73600;BME280;61877;48.246;9.220;2023-07-13T05:48:26;94312.53;;;16.56;88.92
73600;BME280;61877;48.246;9.220;2023-07-13T05:56:31;94321.16;;;17.02;81.88
73600;BME280;61877;48.246;9.220;2023-07-13T06:05:20;94337.84;;;17.84;81.55
73600;BME280;61877;48.246;9.220;2023-07-13T06:12:37;94341.47;;;18.09;77.68
73600;BME280;61877;48.246;9.220;2023-07-13T06:17:00;94343.81;;;18.07;76.40
73600;BME280;61877;48.246;9.220;2023-07-13T06:19:53;94348.31;;;18.40;75.66
73600;BME280;61877;48.246;9.220;2023-07-13T06:31:48;94348.38;;;19.82;65.29
73600;BME280;61877;48.246;9.220;2023-07-13T06:34:36;94350.72;;;19.69;66.59
73600;BME280;61877;48.246;9.220;2023-07-13T06:37:17;94353.81;;;19.68;65.53
73600;BME280;61877;48.246;9.220;2023-07-13T06:39:51;94363.13;;;19.49;67.95
73600;BME280;61877;48.246;9.220;2023-07-13T06:48:27;94365.06;;;19.49;65.13
73600;BME280;61877;48.246;9.220;2023-07-13T06:51:02;94362.31;;;19.35;65.66
73600;BME280;61877;48.246;9.220;2023-07-13T06:53:34;94363.41;;;19.19;63.45
73600;BME280;61877;48.246;9.220;2023-07-13T06:56:28;94361.84;;;19.15;63.56
73600;BME280;61877;48.246;9.220;2023-07-13T06:58:54;94350.13;;;19.00;65.65
73600;BME280;61877;48.246;9.220;2023-07-13T07:01:36;94364.53;;;19.04;64.62
73600;BME280;61877;48.246;9.220;2023-07-13T07:07:45;94356.34;;;18.97;58.81
73600;BME280;61877;48.246;9.220;2023-07-13T07:10:10;94364.97;;;19.20;62.47
73600;BME280;61877;48.246;9.220;2023-07-13T07:13:13;94366.97;;;19.31;61.74
73600;BME280;61877;48.246;9.220;2023-07-13T07:19:01;94366.97;;;19.34;58.81
73600;BME280;61877;48.246;9.220;2023-07-13T07:24:06;94384.09;;;19.49;52.68
73600;BME280;61877;48.246;9.220;2023-07-13T07:26:35;94374.81;;;19.78;53.17
73600;BME280;61877;48.246;9.220;2023-07-13T07:29:04;94388.00;;;19.44;55.96
73600;BME280;61877;48.246;9.220;2023-07-13T07:31:29;94380.59;;;19.52;54.03
73600;BME280;61877;48.246;9.220;2023-07-13T07:33:56;94379.09;;;19.65;54.50
73600;BME280;61877;48.246;9.220;2023-07-13T07:36:22;94392.31;;;19.80;54.01
73600;BME280;61877;48.246;9.220;2023-07-13T07:38:48;94390.75;;;19.76;53.42
73600;BME280;61877;48.246;9.220;2023-07-13T07:41:16;94392.31;;;19.77;52.35
73600;BME280;61877;48.246;9.220;2023-07-13T07:43:42;94387.66;;;19.95;52.65
73600;BME280;61877;48.246;9.220;2023-07-13T07:46:11;94384.16;;;20.12;56.05
73600;BME280;61877;48.246;9.220;2023-07-13T07:48:37;94385.75;;;20.27;55.36
73600;BME280;61877;48.246;9.220;2023-07-13T07:51:04;94384.97;;;20.30;51.75
73600;BME280;61877;48.246;9.220;2023-07-13T07:53:30;94391.56;;;20.43;51.43
73600;BME280;61877;48.246;9.220;2023-07-13T07:55:55;94390.75;;;20.64;51.74
73600;BME280;61877;48.246;9.220;2023-07-13T07:58:26;94388.72;;;20.96;49.18
73600;BME280;61877;48.246;9.220;2023-07-13T08:00:51;94385.53;;;21.22;51.81
73600;BME280;61877;48.246;9.220;2023-07-13T08:03:17;94390.00;;;21.56;52.29
73600;BME280;61877;48.246;9.220;2023-07-13T08:05:42;94390.66;;;21.82;47.77
73600;BME280;61877;48.246;9.220;2023-07-13T08:08:07;94390.06;;;21.49;50.55
73600;BME280;61877;48.246;9.220;2023-07-13T08:10:35;94391.53;;;21.61;49.75
73600;BME280;61877;48.246;9.220;2023-07-13T08:13:01;94386.72;;;21.86;46.61
73600;BME280;61877;48.246;9.220;2023-07-13T08:15:42;94386.31;;;22.35;44.07
73600;BME280;61877;48.246;9.220;2023-07-13T08:21:11;94388.97;;;22.02;46.45
73600;BME280;61877;48.246;9.220;2023-07-13T08:23:39;94393.00;;;21.83;46.01
73600;BME280;61877;48.246;9.220;2023-07-13T08:26:04;94394.91;;;21.90;47.34
73600;BME280;61877;48.246;9.220;2023-07-13T08:28:30;94392.34;;;22.20;46.67
73600;BME280;61877;48.246;9.220;2023-07-13T08:31:18;94394.50;;;21.91;46.61
73600;BME280;61877;48.246;9.220;2023-07-13T08:39:55;94396.03;;;21.96;50.30
73600;BME280;61877;48.246;9.220;2023-07-13T08:42:32;94396.88;;;22.37;46.07
73600;BME280;61877;48.246;9.220;2023-07-13T08:45:08;94400.66;;;22.53;45.92
73600;BME280;61877;48.246;9.220;2023-07-13T08:47:50;94398.41;;;22.82;44.73
73600;BME280;61877;48.246;9.220;2023-07-13T08:50:20;94400.34;;;23.52;45.58
73600;BME280;61877;48.246;9.220;2023-07-13T08:52:51;94398.69;;;23.58;43.81
73600;BME280;61877;48.246;9.220;2023-07-13T08:55:22;94396.00;;;24.11;44.73
73600;BME280;61877;48.246;9.220;2023-07-13T08:57:54;94404.97;;;24.39;42.16
73600;BME280;61877;48.246;9.220;2023-07-13T09:00:25;94399.13;;;23.83;40.03
73600;BME280;61877;48.246;9.220;2023-07-13T09:03:00;94393.03;;;23.42;38.82
73600;BME280;61877;48.246;9.220;2023-07-13T09:05:31;94392.75;;;23.63;40.65
73600;BME280;61877;48.246;9.220;2023-07-13T09:08:08;94400.03;;;24.03;40.49
73600;BME280;61877;48.246;9.220;2023-07-13T09:10:44;94398.06;;;24.54;41.01
73600;BME280;61877;48.246;9.220;2023-07-13T09:13:20;94398.75;;;24.58;40.34
73600;BME280;61877;48.246;9.220;2023-07-13T09:15:49;94393.75;;;24.53;36.84
73600;BME280;61877;48.246;9.220;2023-07-13T09:18:21;94396.53;;;24.49;37.48
73600;BME280;61877;48.246;9.220;2023-07-13T09:20:52;94387.66;;;24.88;37.66
73600;BME280;61877;48.246;9.220;2023-07-13T09:23:23;94390.84;;;25.65;38.17
73600;BME280;61877;48.246;9.220;2023-07-13T09:25:53;94403.59;;;25.16;36.56
73600;BME280;61877;48.246;9.220;2023-07-13T09:28:23;94406.06;;;24.68;36.96
73600;BME280;61877;48.246;9.220;2023-07-13T09:30:52;94398.06;;;24.54;41.27
73600;BME280;61877;48.246;9.220;2023-07-13T09:33:21;94396.63;;;24.23;37.86
73600;BME280;61877;48.246;9.220;2023-07-13T09:35:46;94401.06;;;24.36;40.98
73600;BME280;61877;48.246;9.220;2023-07-13T09:38:14;94400.88;;;23.40;40.06
73600;BME280;61877;48.246;9.220;2023-07-13T09:40:59;94392.78;;;24.63;39.06
73600;BME280;61877;48.246;9.220;2023-07-13T09:43:26;94390.31;;;24.72;38.03
73600;BME280;61877;48.246;9.220;2023-07-13T09:45:52;94393.19;;;25.27;37.84
73600;BME280;61877;48.246;9.220;2023-07-13T09:48:41;94401.03;;;24.86;39.51
73600;BME280;61877;48.246;9.220;2023-07-13T09:51:14;94385.75;;;24.62;39.06
73600;BME280;61877;48.246;9.220;2023-07-13T09:53:41;94393.75;;;25.18;38.54
73600;BME280;61877;48.246;9.220;2023-07-13T09:56:19;94397.56;;;25.44;38.16
73600;BME280;61877;48.246;9.220;2023-07-13T09:58:45;94404.22;;;25.63;37.57
73600;BME280;61877;48.246;9.220;2023-07-13T10:01:10;94403.59;;;25.16;37.20
73600;BME280;61877;48.246;9.220;2023-07-13T10:03:37;94406.56;;;25.25;36.13
73600;BME280;61877;48.246;9.220;2023-07-13T10:06:16;94405.75;;;24.39;37.13
73600;BME280;61877;48.246;9.220;2023-07-13T10:08:45;94404.69;;;24.06;38.44
73600;BME280;61877;48.246;9.220;2023-07-13T10:11:14;94410.03;;;23.87;38.21
73600;BME280;61877;48.246;9.220;2023-07-13T10:13:45;94400.16;;;23.66;41.49
73600;BME280;61877;48.246;9.220;2023-07-13T10:16:11;94409.06;;;23.74;40.99
73600;BME280;61877;48.246;9.220;2023-07-13T10:18:56;94412.03;;;24.13;40.30
73600;BME280;61877;48.246;9.220;2023-07-13T10:21:27;94398.03;;;25.19;38.66
73600;BME280;61877;48.246;9.220;2023-07-13T10:23:55;94399.44;;;24.42;36.91
73600;BME280;61877;48.246;9.220;2023-07-13T10:26:26;94398.81;;;25.20;37.51
73600;BME280;61877;48.246;9.220;2023-07-13T10:29:00;94393.28;;;26.14;38.14
73600;BME280;61877;48.246;9.220;2023-07-13T10:31:27;94392.34;;;26.37;34.63
73600;BME280;61877;48.246;9.220;2023-07-13T10:33:54;94394.50;;;26.78;34.84
73600;BME280;61877;48.246;9.220;2023-07-13T10:36:31;94397.97;;;27.23;33.90
73600;BME280;61877;48.246;9.220;2023-07-13T10:39:02;94387.59;;;28.47;31.83
73600;BME280;61877;48.246;9.220;2023-07-13T10:41:36;94380.00;;;28.26;32.46
73600;BME280;61877;48.246;9.220;2023-07-13T10:44:13;94397.69;;;27.62;34.10
73600;BME280;61877;48.246;9.220;2023-07-13T10:46:43;94387.19;;;27.16;34.62
73600;BME280;61877;48.246;9.220;2023-07-13T10:49:11;94388.53;;;27.24;36.22
73600;BME280;61877;48.246;9.220;2023-07-13T10:51:38;94379.78;;;26.68;37.69
73600;BME280;61877;48.246;9.220;2023-07-13T10:54:22;94382.72;;;26.61;37.10
73600;BME280;61877;48.246;9.220;2023-07-13T10:56:53;94379.44;;;25.82;37.29
73600;BME280;61877;48.246;9.220;2023-07-13T10:59:25;94376.34;;;26.32;35.94
73600;BME280;61877;48.246;9.220;2023-07-13T11:01:55;94376.53;;;26.25;34.85
73600;BME280;61877;48.246;9.220;2023-07-13T11:04:29;94370.41;;;26.65;36.63
73600;BME280;61877;48.246;9.220;2023-07-13T11:07:16;94368.50;;;26.79;34.07
73600;BME280;61877;48.246;9.220;2023-07-13T11:09:49;94370.13;;;27.21;37.02
73600;BME280;61877;48.246;9.220;2023-07-13T11:12:51;94365.16;;;27.69;33.14
73600;BME280;61877;48.246;9.220;2023-07-13T11:15:31;94355.41;;;28.06;34.11
73600;BME280;61877;48.246;9.220;2023-07-13T11:17:57;94362.59;;;28.04;32.74
73600;BME280;61877;48.246;9.220;2023-07-13T11:20:41;94367.22;;;27.40;31.79
73600;BME280;61877;48.246;9.220;2023-07-13T11:23:29;94366.97;;;26.13;33.68
73600;BME280;61877;48.246;9.220;2023-07-13T11:25:55;94376.97;;;25.72;33.68
73600;BME280;61877;48.246;9.220;2023-07-13T11:28:25;94382.03;;;25.34;33.88
73600;BME280;61877;48.246;9.220;2023-07-13T11:31:03;94373.91;;;25.50;35.97
73600;BME280;61877;48.246;9.220;2023-07-13T11:33:53;94367.06;;;25.74;36.20
73600;BME280;61877;48.246;9.220;2023-07-13T11:36:31;94368.94;;;25.61;36.18
73600;BME280;61877;48.246;9.220;2023-07-13T11:39:04;94375.00;;;25.33;35.06
73600;BME280;61877;48.246;9.220;2023-07-13T11:41:45;94364.28;;;25.58;34.17
73600;BME280;61877;48.246;9.220;2023-07-13T11:44:17;94366.00;;;25.88;34.38
73600;BME280;61877;48.246;9.220;2023-07-13T11:46:49;94363.19;;;26.07;35.69
73600;BME280;61877;48.246;9.220;2023-07-13T11:49:21;94360.16;;;26.82;34.29
73600;BME280;61877;48.246;9.220;2023-07-13T11:51:48;94360.88;;;26.99;34.99
73600;BME280;61877;48.246;9.220;2023-07-13T11:54:23;94364.34;;;26.87;33.28
73600;BME280;61877;48.246;9.220;2023-07-13T11:56:50;94367.75;;;26.14;33.37
73600;BME280;61877;48.246;9.220;2023-07-13T11:59:16;94363.66;;;25.86;34.30
73600;BME280;61877;48.246;9.220;2023-07-13T12:01:46;94361.47;;;26.13;33.71
73600;BME280;61877;48.246;9.220;2023-07-13T12:04:21;94361.72;;;26.67;34.12
73600;BME280;61877;48.246;9.220;2023-07-13T12:06:54;94353.81;;;26.37;35.44
73600;BME280;61877;48.246;9.220;2023-07-13T12:09:21;94365.41;;;25.96;36.90
73600;BME280;61877;48.246;9.220;2023-07-13T12:11:46;94367.59;;;25.85;35.11
73600;BME280;61877;48.246;9.220;2023-07-13T12:14:14;94362.91;;;26.50;34.52
73600;BME280;61877;48.246;9.220;2023-07-13T12:16:43;94360.97;;;27.77;34.80
73600;BME280;61877;48.246;9.220;2023-07-13T12:19:17;94353.16;;;27.76;33.88
73600;BME280;61877;48.246;9.220;2023-07-13T12:21:45;94350.06;;;26.92;33.22
73600;BME280;61877;48.246;9.220;2023-07-13T12:24:17;94358.25;;;25.83;34.42
73600;BME280;61877;48.246;9.220;2023-07-13T12:26:43;94359.72;;;25.52;34.89
73600;BME280;61877;48.246;9.220;2023-07-13T12:29:15;94367.25;;;24.89;36.56
73600;BME280;61877;48.246;9.220;2023-07-13T12:31:43;94367.88;;;24.96;37.10
73600;BME280;61877;48.246;9.220;2023-07-13T12:34:11;94366.09;;;24.44;37.65
73600;BME280;61877;48.246;9.220;2023-07-13T12:36:39;94362.41;;;25.16;38.28
73600;BME280;61877;48.246;9.220;2023-07-13T12:39:21;94363.66;;;25.11;36.66
73600;BME280;61877;48.246;9.220;2023-07-13T12:41:50;94360.91;;;25.31;37.35
73600;BME280;61877;48.246;9.220;2023-07-13T12:44:26;94360.03;;;25.73;37.20
73600;BME280;61877;48.246;9.220;2023-07-13T12:46:57;94361.06;;;25.63;36.48
73600;BME280;61877;48.246;9.220;2023-07-13T12:49:26;94359.69;;;25.71;37.93
73600;BME280;61877;48.246;9.220;2023-07-13T12:51:57;94364.25;;;25.94;35.26
73600;BME280;61877;48.246;9.220;2023-07-13T12:54:25;94358.56;;;27.67;36.89
73600;BME280;61877;48.246;9.220;2023-07-13T12:56:53;94354.84;;;27.99;32.06
73600;BME280;61877;48.246;9.220;2023-07-13T12:59:23;94361.78;;;28.28;31.45
73600;BME280;61877;48.246;9.220;2023-07-13T13:01:55;94356.34;;;28.96;29.55
73600;BME280;61877;48.246;9.220;2023-07-13T13:04:21;94348.47;;;29.29;32.63
73600;BME280;61877;48.246;9.220;2023-07-13T13:06:49;94350.00;;;28.74;32.96
73600;BME280;61877;48.246;9.220;2023-07-13T13:09:35;94343.56;;;27.80;34.52
73600;BME280;61877;48.246;9.220;2023-07-13T13:12:01;94346.88;;;26.93;35.16
73600;BME280;61877;48.246;9.220;2023-07-13T13:14:29;94346.28;;;26.86;38.83
73600;BME280;61877;48.246;9.220;2023-07-13T13:16:54;94348.97;;;26.73;37.01
73600;BME280;61877;48.246;9.220;2023-07-13T13:19:23;94343.38;;;26.77;40.57
73600;BME280;61877;48.246;9.220;2023-07-13T13:21:50;94343.94;;;26.39;39.08
73600;BME280;61877;48.246;9.220;2023-07-13T13:24:19;94355.28;;;26.09;37.75
73600;BME280;61877;48.246;9.220;2023-07-13T13:26:47;94347.22;;;26.34;37.79
73600;BME280;61877;48.246;9.220;2023-07-13T13:29:15;94353.91;;;26.33;39.72
73600;BME280;61877;48.246;9.220;2023-07-13T13:31:41;94342.41;;;26.22;38.87
73600;BME280;61877;48.246;9.220;2023-07-13T13:34:09;94343.84;;;26.27;40.37
73600;BME280;61877;48.246;9.220;2023-07-13T13:36:38;94344.81;;;27.92;37.34
73600;BME280;61877;48.246;9.220;2023-07-13T13:39:08;94345.41;;;27.46;37.46
73600;BME280;61877;48.246;9.220;2023-07-13T13:41:41;94347.97;;;27.24;36.62
73600;BME280;61877;48.246;9.220;2023-07-13T13:44:13;94343.00;;;27.73;37.17
73600;BME280;61877;48.246;9.220;2023-07-13T13:46:39;94333.75;;;29.32;34.01
73600;BME280;61877;48.246;9.220;2023-07-13T13:49:05;94330.56;;;30.83;34.83
73600;BME280;61877;48.246;9.220;2023-07-13T13:51:33;94325.41;;;30.46;31.77
73600;BME280;61877;48.246;9.220;2023-07-13T13:53:58;94348.78;;;29.74;31.72
73600;BME280;61877;48.246;9.220;2023-07-13T13:56:24;94347.91;;;28.78;36.42
73600;BME280;61877;48.246;9.220;2023-07-13T13:58:52;94344.88;;;27.76;35.08
73600;BME280;61877;48.246;9.220;2023-07-13T14:01:21;94342.97;;;26.62;36.16
73600;BME280;61877;48.246;9.220;2023-07-13T14:03:47;94343.94;;;26.39;38.62
73600;BME280;61877;48.246;9.220;2023-07-13T14:06:16;94334.47;;;26.73;37.99
73600;BME280;61877;48.246;9.220;2023-07-13T14:08:42;94337.50;;;26.91;33.99
73600;BME280;61877;48.246;9.220;2023-07-13T14:11:12;94342.31;;;27.44;34.18
73600;BME280;61877;48.246;9.220;2023-07-13T14:13:43;94323.41;;;28.68;33.50
73600;BME280;61877;48.246;9.220;2023-07-13T14:16:11;94339.72;;;26.96;35.21
73600;BME280;61877;48.246;9.220;2023-07-13T14:18:38;94340.59;;;26.93;39.06
73600;BME280;61877;48.246;9.220;2023-07-13T14:21:13;94334.59;;;27.51;37.27
73600;BME280;61877;48.246;9.220;2023-07-13T14:23:39;94338.41;;;28.08;34.56
73600;BME280;61877;48.246;9.220;2023-07-13T14:26:09;94341.53;;;27.31;35.29
73600;BME280;61877;48.246;9.220;2023-07-13T14:28:36;94338.50;;;27.25;36.90
73600;BME280;61877;48.246;9.220;2023-07-13T14:31:04;94343.94;;;26.23;37.75
73600;BME280;61877;48.246;9.220;2023-07-13T14:33:33;94341.28;;;26.20;40.13
73600;BME280;61877;48.246;9.220;2023-07-13T14:36:02;94346.69;;;26.39;34.61
73600;BME280;61877;48.246;9.220;2023-07-13T14:38:28;94340.19;;;26.78;32.70
73600;BME280;61877;48.246;9.220;2023-07-13T14:41:09;94341.25;;;27.25;30.01
73600;BME280;61877;48.246;9.220;2023-07-13T14:43:35;94335.84;;;27.22;30.58
73600;BME280;61877;48.246;9.220;2023-07-13T14:46:01;94343.53;;;26.86;31.06
73600;BME280;61877;48.246;9.220;2023-07-13T14:48:30;94341.34;;;28.51;29.17
73600;BME280;61877;48.246;9.220;2023-07-13T14:50:57;94348.09;;;29.40;28.80
73600;BME280;61877;48.246;9.220;2023-07-13T14:53:26;94344.69;;;29.36;27.64
73600;BME280;61877;48.246;9.220;2023-07-13T14:55:52;94343.81;;;28.70;29.37
73600;BME280;61877;48.246;9.220;2023-07-13T14:58:18;94340.66;;;28.72;27.32
73600;BME280;61877;48.246;9.220;2023-07-13T15:00:43;94336.13;;;31.10;26.61
73600;BME280;61877;48.246;9.220;2023-07-13T15:03:17;94332.13;;;31.98;24.00
73600;BME280;61877;48.246;9.220;2023-07-13T15:05:43;94330.28;;;31.35;22.93
73600;BME280;61877;48.246;9.220;2023-07-13T15:08:09;94332.22;;;29.09;25.06
73600;BME280;61877;48.246;9.220;2023-07-13T15:10:37;94335.50;;;28.36;27.43
73600;BME280;61877;48.246;9.220;2023-07-13T15:13:14;94337.03;;;29.61;25.38
73600;BME280;61877;48.246;9.220;2023-07-13T15:15:48;94331.09;;;28.51;27.32
73600;BME280;61877;48.246;9.220;2023-07-13T15:18:18;94332.38;;;30.77;25.12
73600;BME280;61877;48.246;9.220;2023-07-13T15:20:53;94330.91;;;30.37;26.16
73600;BME280;61877;48.246;9.220;2023-07-13T15:23:22;94337.81;;;29.19;24.93
73600;BME280;61877;48.246;9.220;2023-07-13T15:25:49;94340.91;;;28.40;26.57
73600;BME280;61877;48.246;9.220;2023-07-13T15:28:18;94341.72;;;29.52;29.29
73600;BME280;61877;48.246;9.220;2023-07-13T15:30:46;94330.69;;;32.12;22.92
73600;BME280;61877;48.246;9.220;2023-07-13T15:33:15;94325.84;;;35.16;21.23
73600;BME280;61877;48.246;9.220;2023-07-13T15:35:41;94322.34;;;35.92;19.73
73600;BME280;61877;48.246;9.220;2023-07-13T15:38:13;94327.56;;;37.31;16.86
73600;BME280;61877;48.246;9.220;2023-07-13T15:40:40;94328.75;;;38.33;16.29
73600;BME280;61877;48.246;9.220;2023-07-13T15:43:11;94331.00;;;37.04;17.11
73600;BME280;61877;48.246;9.220;2023-07-13T15:45:37;94330.00;;;35.46;17.72
73600;BME280;61877;48.246;9.220;2023-07-13T15:48:11;94330.94;;;36.20;18.33
73600;BME280;61877;48.246;9.220;2023-07-13T15:50:59;94320.84;;;37.07;18.54
73600;BME280;61877;48.246;9.220;2023-07-13T15:53:28;94333.34;;;38.20;15.85
73600;BME280;61877;48.246;9.220;2023-07-13T15:55:55;94333.22;;;37.48;16.68
73600;BME280;61877;48.246;9.220;2023-07-13T15:58:23;94329.19;;;37.01;16.94
73600;BME280;61877;48.246;9.220;2023-07-13T16:00:49;94349.78;;;34.19;20.07
73600;BME280;61877;48.246;9.220;2023-07-13T16:03:15;94340.31;;;33.29;20.39
73600;BME280;61877;48.246;9.220;2023-07-13T16:05:40;94330.75;;;30.31;24.59
73600;BME280;61877;48.246;9.220;2023-07-13T16:08:16;94336.63;;;32.28;22.62